KGYY/GYY METAR and TAF weather

Enter ICAO airport designator
Station Type Date Time Source
KGYY METAR 2019/07/18 10:45 UTC NOAA

KGYY 181045Z 16004KT 10SM BKN110 25/24 A2990


Station Type Date Time Source
KGYY Decoded METAR 2019/07/18 10:45 UTC NOAA

Gary Regional, IN, United States (KGYY) 41-37N 087-25W
Jul 18, 2019 - 06:45 AM EDT / 2019.07.18 1045 UTC
Wind: from the SSE (160 degrees) at 5 MPH (4 KT):0
Visibility: 10 mile(s):0
Sky conditions: mostly cloudy
Temperature: 77 F (25 C)
Dew Point: 75 F (24 C)
Relative Humidity: 94%
Pressure (altimeter): 29.9 in. Hg (1012 hPa)
ob: KGYY 181045Z 16004KT 10SM BKN110 25/24 A2990
cycle: 11

Station Type Date Time Source
KGYY TAF 2019/07/18 09:21 UTC NOAA

TAF
AMD KGYY 180918Z 1809/1906 18003KT P6SM SCT090 BKN250
FM181200 18008KT P6SM VCTS SCT050CB BKN150
TEMPO 1813/1816 31020G30KT 2SM TSRA BKN035CB
FM181600 18012G17KT P6SM SCT050 BKN100
TEMPO 1816/1818 06012KT
FM181800 21015G22KT P6SM SCT060 SCT150
FM190100 22011KT P6SM SCT250

Example: see airport list